METAR Data
IDs: Format: Raw Decoded Include TAF

Data at: 2037 UTC 14 Dec 2018

K5C1 142015Z AUTO 33011G22KT 10SM OVC032 10/01 A3009 RMK AO1
K5C1 141955Z AUTO 33012G21KT 10SM OVC032 10/01 A3010 RMK AO1
K5C1 141935Z AUTO 34013G26KT 320V020 10SM OVC032 10/01 A3010 RMK AO1
K5C1 141915Z AUTO 33013G25KT 10SM OVC032 10/00 A3010 RMK AO1
K5C1 141855Z AUTO 33012G29KT 280V350 10SM OVC032 10/00 A3010 RMK AO1
K5C1 141835Z AUTO 33020G28KT 10SM OVC032 10/00 A3010 RMK AO1
K5C1 141815Z AUTO 33013G25KT 300V360 10SM OVC032 09/00 A3011 RMK AO1
K5C1 141755Z AUTO 32019G26KT 280V350 10SM OVC034 09/00 A3012 RMK AO1
K5C1 141735Z AUTO 34013G23KT 10SM OVC034 08/00 A3011 RMK AO1
K5C1 141715Z AUTO 33018G27KT 10SM BKN034 08/00 A3012 RMK AO1
K5C1 141655Z AUTO 33011G29KT 290V010 10SM BKN032 08/00 A3012 RMK AO1
K5C1 141635Z AUTO 32014G26KT 10SM OVC030 07/00 A3012 RMK AO1
K5C1 141615Z AUTO 33013G24KT 10SM OVC028 06/M01 A3012 RMK AO1
K5C1 141555Z AUTO 34017G23KT 10SM OVC028 06/00 A3012 RMK AO1
K5C1 141535Z AUTO 34011G22KT 300V010 10SM OVC028 06/00 A3011 RMK AO1
K5C1 141515Z AUTO 34010G24KT 10SM OVC028 06/00 A3010 RMK AO1
K5C1 141455Z AUTO 34014G20KT 10SM OVC028 05/M01 A3009 RMK AO1
K5C1 141435Z AUTO 35010G19KT 10SM OVC026 05/00 A3008 RMK AO1
K5C1 141415Z AUTO 35010G19KT 320V020 10SM OVC026 04/00 A3007 RMK AO1
K5C1 141355Z AUTO 35011G20KT 320V020 10SM BKN022 03/00 A3006 RMK AO1
K5C1 141335Z AUTO 35011G20KT 320V020 10SM SCT022 03/00 A3006 RMK AO1
K5C1 141315Z AUTO 34017G22KT 10SM SCT020 03/00 A3004 RMK AO1
K5C1 141255Z AUTO 34011G26KT 10SM SCT020 SCT032 03/00 A3003 RMK AO1
K5C1 141235Z AUTO 33016G25KT 10SM SCT022 03/00 A3003 RMK AO1
K5C1 141215Z AUTO 33018G30KT 10SM SCT022 03/00 A3002 RMK AO1
K5C1 141155Z AUTO 33020G27KT 10SM SCT022 SCT027 03/00 A3002 RMK AO1
K5C1 141135Z AUTO 33022G28KT 300V360 10SM SCT022 SCT027 SCT050 03/00 A3001 RMK AO1
K5C1 141115Z AUTO 33020G28KT 10SM BKN022 BKN060 OVC070 03/00 A3001 RMK AO1
K5C1 141055Z AUTO 32014G26KT 10SM BKN022 BKN060 BKN070 03/00 A3001 RMK AO1
K5C1 141035Z AUTO 32020G29KT 10SM SCT024 03/00 A3000 RMK AO1
K5C1 141015Z AUTO 31014G22KT 10SM OVC026 04/00 A2999 RMK AO1
K5C1 140955Z AUTO 33011G19KT 290V350 10SM OVC028 04/00 A3000 RMK AO1
K5C1 140935Z AUTO 32010G18KT 280V350 10SM BKN030 OVC034 05/00 A3000 RMK AO1
K5C1 140915Z AUTO 33012G20KT 10SM SCT030 SCT036 05/00 A2999 RMK AO1
K5C1 140855Z AUTO 34011G25KT 10SM SCT028 SCT033 05/00 A2998 RMK AO1
K5C1 140835Z AUTO 33012G24KT 310V020 10SM SCT029 SCT035 05/00 A2998 RMK AO1
K5C1 140815Z AUTO 33015G24KT 10SM CLR 05/00 A2997 RMK AO1
K5C1 140755Z AUTO 33015G23KT 10SM CLR 05/00 A2996 RMK AO1
K5C1 140735Z AUTO 33011G27KT 10SM CLR 05/00 A2996 RMK AO1
K5C1 140715Z AUTO 32014G26KT 10SM SCT026 SCT041 05/00 A2998 RMK AO1
K5C1 140655Z AUTO 32021G27KT 10SM OVC026 06/00 A2999 RMK AO1
K5C1 140635Z AUTO 32014G25KT 10SM OVC026 06/00 A2998 RMK AO1
K5C1 140615Z AUTO 33018G28KT 10SM OVC026 06/01 A2999 RMK AO1
K5C1 140555Z AUTO 33022G30KT 10SM OVC028 06/00 A2998 RMK AO1
K5C1 140535Z AUTO 32014G30KT 10SM OVC030 06/00 A2997 RMK AO1
K5C1 140515Z AUTO 33015G27KT 300V360 10SM OVC030 06/00 A2996 RMK AO1
K5C1 140455Z AUTO 31016G27KT 280V360 10SM OVC030 06/00 A2996 RMK AO1
K5C1 140435Z AUTO 32013G24KT 10SM OVC030 06/00 A2996 RMK AO1
K5C1 140415Z AUTO 31011G26KT 10SM OVC030 06/00 A2996 RMK AO1
K5C1 140355Z AUTO 31015G26KT 10SM OVC030 06/00 A2996 RMK AO1
K5C1 140335Z AUTO 31012G26KT 10SM OVC030 06/00 A2996 RMK AO1
K5C1 140315Z AUTO 32016G24KT 10SM OVC030 06/00 A2996 RMK AO1
K5C1 140255Z AUTO 31015G25KT 10SM OVC030 06/00 A2996 RMK AO1
K5C1 140235Z AUTO 32012G23KT 10SM OVC030 06/00 A2996 RMK AO1
K5C1 140215Z AUTO 32012G25KT 290V350 10SM 07/00 A2996 RMK AO1
K5C1 140135Z AUTO 30015G25KT 10SM BKN031 OVC060 06/00 A2995 RMK AO1
K5C1 140115Z AUTO 31013G24KT 270V330 10SM BKN031 BKN038 OVC048 06/00 A2995 RMK AO1
K5C1 140055Z AUTO 30015G25KT 10SM SCT033 SCT042 BKN050 06/00 A2995 RMK AO1
K5C1 140035Z AUTO 30011G21KT 10SM SCT033 SCT045 BKN055 06/00 A2994 RMK AO1
K5C1 140015Z AUTO 32015G24KT 290V350 10SM BKN035 BKN043 07/00 A2993 RMK AO1
K5C1 132355Z AUTO 30011KT 280V340 07/00 A2992 RMK AO1
K5C1 132155Z AUTO 30015G23KT 10SM SCT041 10/00 A2987 RMK AO1
K5C1 132135Z AUTO 31016G26KT 280V340 10SM CLR 12/00 A2985 RMK AO1
K5C1 132115Z AUTO 28016G25KT 10SM CLR 14/00 A2982 RMK AO1
K5C1 132055Z AUTO 30014G26KT 10SM CLR 15/M01 A2980 RMK AO1
K5C1 132035Z AUTO 29015G22KT 260V320 10SM CLR 16/M04 A2979 RMK AO1
K5C1 132015Z AUTO 28011G24KT 220V290 10SM CLR 17/M04 A2979 RMK AO1
K5C1 131955Z AUTO 29011G23KT 230V300 10SM CLR 17/M03 A2979 RMK AO1
K5C1 131935Z AUTO 30015G28KT 10SM CLR 16/M03 A2979 RMK AO1
K5C1 131915Z AUTO 28010G24KT 240V310 10SM CLR 16/M03 A2980 RMK AO1
K5C1 131855Z AUTO 29016G30KT 10SM CLR 17/M02 A2980 RMK AO1
K5C1 131835Z AUTO 30018G25KT 10SM CLR 17/M01 A2979 RMK AO1
K5C1 131815Z AUTO 31017G29KT 10SM CLR 16/00 A2979 RMK AO1
K5C1 131755Z AUTO 30013G23KT 250V320 10SM CLR 16/00 A2980 RMK AO1
K5C1 131735Z AUTO 29014G22KT 10SM CLR 16/01 A2981 RMK AO1
K5C1 131715Z AUTO 31017G24KT 10SM CLR 16/01 A2982 RMK AO1
K5C1 131655Z AUTO 31015G26KT 10SM CLR 16/03 A2982 RMK AO1
K5C1 131635Z AUTO 30015G22KT 10SM CLR 17/06 A2981 RMK AO1
K5C1 131615Z AUTO 29008G15KT 10SM CLR 16/07 A2980 RMK AO1
K5C1 131555Z AUTO 00000KT 10SM CLR 16/09 A2980 RMK AO1
K5C1 131535Z AUTO 27009G19KT 250V310 10SM CLR 15/10 A2980 RMK AO1
K5C1 131515Z AUTO 27009G16KT 10SM CLR 15/10 A2979 RMK AO1
K5C1 131455Z AUTO 26006KT 10SM CLR 14/11 A2979 RMK AO1
K5C1 131435Z AUTO 00000KT 10SM CLR 13/11 A2978 RMK AO1
K5C1 131415Z AUTO 00000KT 10SM CLR 12/12 A2977 RMK AO1
K5C1 131355Z AUTO 25006KT 10SM CLR 12/11 A2977 RMK AO1
K5C1 131335Z AUTO 26005KT 10SM CLR 12/12 A2976 RMK AO1
K5C1 131315Z AUTO 00000KT 10SM CLR 12/12 A2976 RMK AO1
K5C1 131255Z AUTO 00000KT 10SM CLR 12/12 A2976 RMK AO1
K5C1 131235Z AUTO 00000KT 10SM CLR 12/12 A2975 RMK AO1
K5C1 131215Z AUTO 00000KT 10SM CLR 12/12 A2975 RMK AO1
K5C1 131155Z AUTO 00000KT 10SM CLR 12/12 A2974 RMK AO1
K5C1 131135Z AUTO 00000KT 10SM CLR 12/12 A2974 RMK AO1
K5C1 131115Z AUTO 00000KT 10SM SCT003 12/12 A2975 RMK AO1
K5C1 131055Z AUTO 00000KT 7SM SCT003 12/12 A2975 RMK AO1
K5C1 131035Z AUTO 00000KT 10SM SCT003 12/12 A2975 RMK AO1
K5C1 131015Z AUTO 00000KT 1SM OVC003 13/13 A2976 RMK AO1
K5C1 130955Z AUTO 00000KT 1 1/2SM OVC003 13/13 A2977 RMK AO1
K5C1 130935Z AUTO 00000KT 1 3/4SM OVC003 13/13 A2977 RMK AO1
K5C1 130915Z AUTO 00000KT 1/4SM OVC003 13/13 A2977 RMK AO1
K5C1 130855Z AUTO 00000KT 1/4SM OVC003 13/13 A2978 RMK AO1